Time;durP1;ratioP1;P1;durP2;ratioP2;P2;SDS_P1;SDS_P2;PMS_P1;PMS_P2;Temp;Humidity;BMP_temperature;BMP_pressure;BME280_temperature;BME280_humidity;BME280_pressure;Samples;Min_cycle;Max_cycle;Signal;HPM_P1;HPM_P2
2022/11/05 00:17:27;;;;;;;;;10.00;9.75;;;;;11.52;64.53;101408.34;4974138;28;45494;-75
2022/11/05 00:19:55;;;;;;;;;10.25;10.25;;;;;11.46;64.59;101410.28;4965839;28;45732;-75
2022/11/05 00:25:16;;;;;;;;;12.50;11.00;;;;;11.76;64.59;101455.88;4972164;28;45627;-74
2022/11/05 00:27:48;;;;;;;;;13.25;10.75;;;;;11.62;64.79;101439.28;4966861;28;45349;-75
2022/11/05 00:30:19;;;;;;;;;11.75;9.00;;;;;11.90;64.53;101486.72;4974735;28;45582;-74
2022/11/05 00:32:49;;;;;;;;;11.25;11.25;;;;;11.47;64.43;101409.34;4967986;28;47667;-74
2022/11/05 00:35:19;;;;;;;;;10.25;10.25;;;;;11.48;64.57;101427.16;4963568;28;45776;-74
2022/11/05 00:37:54;;;;;;;;;13.50;12.25;;;;;11.45;64.60;101421.88;4967746;28;45368;-75
2022/11/05 00:40:22;;;;;;;;;14.75;11.75;;;;;11.50;64.67;101438.66;4959676;28;45424;-75
2022/11/05 00:45:47;;;;;;;;;13.00;12.50;;;;;11.55;64.88;101449.25;4967347;28;45313;-75
2022/11/05 00:51:01;;;;;;;;;14.50;13.25;;;;;11.59;65.01;101468.78;4965593;28;45398;-75
2022/11/05 00:53:29;;;;;;;;;13.25;13.25;;;;;11.48;64.75;101461.91;4957682;28;47488;-75
2022/11/05 00:56:05;;;;;;;;;12.50;10.75;;;;;11.45;64.99;101451.28;4971146;28;45318;-75
2022/11/05 00:58:33;;;;;;;;;13.50;12.00;;;;;11.33;64.91;101422.19;4971031;28;46010;-75
2022/11/05 01:01:01;;;;;;;;;7.25;6.75;;;;;11.77;65.02;101499.53;4976401;28;45556;-75
2022/11/05 01:03:30;;;;;;;;;12.00;10.50;;;;;11.59;65.02;101469.63;4963215;28;45586;-75
2022/11/05 01:05:58;;;;;;;;;12.75;11.50;;;;;11.46;65.02;101454.81;4972678;28;45321;-75
2022/11/05 01:08:29;;;;;;;;;4.00;2.75;;;;;11.33;65.04;101427.53;4973405;28;45377;-75
2022/11/05 01:11:00;;;;;;;;;9.00;7.50;;;;;11.59;64.86;101460.75;4964107;28;45413;-75
2022/11/05 01:13:29;;;;;;;;;10.50;10.50;;;;;11.77;64.82;101494.19;4969421;28;45397;-75
2022/11/05 01:15:55;;;;;;;;;10.25;7.00;;;;;11.76;64.86;101500.44;4963362;28;45616;-75
2022/11/05 01:18:24;;;;;;;;;8.25;7.00;;;;;11.36;64.72;101424.78;4978338;28;45369;-75
2022/11/05 01:20:55;;;;;;;;;7.50;7.00;;;;;11.45;64.73;101447.75;4964014;28;45453;-75
2022/11/05 01:23:22;;;;;;;;;12.50;10.25;;;;;11.47;64.93;101451.25;4972852;28;47755;-75
2022/11/05 01:25:51;;;;;;;;;11.50;10.50;;;;;11.46;65.03;101454.81;4973585;28;45431;-75
2022/11/05 01:28:16;;;;;;;;;11.50;6.75;;;;;11.39;64.52;101443.41;4967911;28;45435;-75
2022/11/05 01:30:44;;;;;;;;;9.75;9.00;;;;;11.29;64.62;101436.53;4973767;28;45587;-75
2022/11/05 01:33:15;;;;;;;;;8.00;8.00;;;;;11.63;64.86;101481.16;4972443;28;45854;-75
2022/11/05 01:35:42;;;;;;;;;9.75;9.25;;;;;11.48;64.79;101461.91;4978157;28;45483;-75
2022/11/05 01:38:08;;;;;;;;;9.50;8.00;;;;;11.55;64.92;101467.09;4966510;28;45459;-74
2022/11/05 01:40:44;;;;;;;;;7.75;7.75;;;;;11.45;64.72;101459.31;4967157;28;45384;-75
2022/11/05 01:43:23;;;;;;;;;10.50;10.00;;;;;11.49;64.76;101469.03;4966081;28;48567;-74
2022/11/05 01:45:56;;;;;;;;;11.50;10.00;;;;;11.18;65.03;101420.75;4969429;28;45379;-75
2022/11/05 01:48:34;;;;;;;;;11.00;10.00;;;;;11.63;64.91;101497.22;4965350;28;45394;-75
2022/11/05 01:51:16;;;;;;;;;7.50;6.00;;;;;11.34;64.90;101456.00;4961520;28;45567;-75
2022/11/05 01:53:58;;;;;;;;;12.75;10.50;;;;;11.43;64.82;101477.19;4969065;28;47254;-75
2022/11/05 01:56:39;;;;;;;;;9.25;8.75;;;;;11.11;64.98;101417.34;4978024;28;45399;-75
2022/11/05 01:59:18;;;;;;;;;10.00;10.00;;;;;11.11;64.94;101428.06;4979749;28;45492;-75
2022/11/05 02:01:44;;;;;;;;;12.50;11.25;;;;;11.41;65.09;101483.47;4971437;28;45586;-74
2022/11/05 02:04:16;;;;;;;;;10.50;10.50;;;;;11.53;65.04;101517.94;4972108;28;46266;-75
2022/11/05 02:06:45;;;;;;;;;12.75;11.25;;;;;11.19;64.92;101456.38;4968479;28;45465;-74
2022/11/05 02:09:23;;;;;;;;;10.50;6.75;;;;;11.27;65.21;101465.09;4963611;28;45273;-75
2022/11/05 02:11:52;;;;;;;;;8.50;8.50;;;;;11.06;65.14;101426.38;4974914;28;45501;-75
2022/11/05 02:14:19;;;;;;;;;11.50;10.50;;;;;11.41;65.03;101484.38;4976911;28;46130;-75
2022/11/05 02:17:21;;;;;;;;;10.50;9.00;;;;;11.46;65.03;101493.16;4969411;28;45783;-75
2022/11/05 02:20:17;;;;;;;;;11.75;11.75;;;;;11.45;64.95;101501.19;4960195;28;45667;-74
2022/11/05 02:22:58;;;;;;;;;13.50;12.00;;;;;11.43;65.09;101503.91;4961207;28;45638;-75
2022/11/05 02:25:32;;;;;;;;;14.00;13.00;;;;;11.41;65.01;101491.47;4970551;28;48098;-75
2022/11/05 02:28:32;;;;;;;;;11.25;11.25;;;;;11.39;65.40;101487.97;4969584;28;45748;-74
2022/11/05 02:31:13;;;;;;;;;11.00;10.75;;;;;11.04;65.07;101441.56;4967163;28;45629;-75
2022/11/05 02:34:09;;;;;;;;;12.25;11.75;;;;;11.09;64.97;101456.59;4962981;28;45721;-75
2022/11/05 02:36:40;;;;;;;;;13.75;10.00;;;;;11.24;65.23;101490.13;4975519;28;46418;-75
2022/11/05 02:39:47;;;;;;;;;11.50;11.25;;;;;11.07;65.25;101465.56;4972712;28;45286;-75
2022/11/05 02:42:53;;;;;;;;;11.50;10.75;;;;;11.31;65.30;101510.44;4944856;28;45545;-75
2022/11/05 02:45:31;;;;;;;;;11.50;11.00;;;;;11.30;65.37;101507.78;4966032;28;45884;-75
2022/11/05 02:48:15;;;;;;;;;12.25;10.50;;;;;10.83;65.35;101430.47;4970703;28;45728;-75
2022/11/05 02:51:07;;;;;;;;;14.25;11.25;;;;;10.98;65.15;101461.31;4974151;28;45502;-75
2022/11/05 02:54:10;;;;;;;;;10.00;10.00;;;;;11.24;65.30;101505.25;4964341;28;45309;-74
2022/11/05 02:56:43;;;;;;;;;15.50;12.00;;;;;11.04;64.90;101482.56;4965519;28;45364;-75
2022/11/05 02:59:12;;;;;;;;;9.00;9.00;;;;;10.84;65.46;101439.34;4979121;28;47064;-75
2022/11/05 03:01:46;;;;;;;;;8.25;8.25;;;;;11.17;65.48;101498.28;4977216;28;45718;-75
2022/11/05 03:04:23;;;;;;;;;11.00;9.50;;;;;11.03;65.49;101486.13;4967108;28;45422;-74
2022/11/05 03:07:19;;;;;;;;;9.00;8.25;;;;;11.11;65.20;101494.84;4977867;28;45351;-75
2022/11/05 03:10:12;;;;;;;;;12.00;10.00;;;;;11.09;65.29;101488.66;4962840;28;47214;-75
2022/11/05 03:13:15;;;;;;;;;10.00;9.00;;;;;10.71;65.51;101425.41;4975718;28;45580;-75
2022/11/05 03:16:08;;;;;;;;;10.50;8.50;;;;;10.68;65.29;101429.03;4967752;28;45552;-74
2022/11/05 03:18:49;;;;;;;;;9.00;7.50;;;;;10.97;65.20;101478.25;4959090;28;45504;-74
2022/11/05 03:21:33;;;;;;;;;10.25;8.25;;;;;10.66;65.19;101429.94;4961202;28;47122;-75
2022/11/05 03:24:08;;;;;;;;;9.75;8.75;;;;;11.07;65.35;101498.50;4964066;28;45624;-75
2022/11/05 03:26:54;;;;;;;;;3.00;2.25;;;;;10.80;65.47;101445.69;4983814;28;45401;-75
2022/11/05 03:29:48;;;;;;;;;8.50;7.00;;;;;10.71;65.65;101434.31;4966086;28;45770;-75
2022/11/05 03:32:19;;;;;;;;;10.50;8.75;;;;;10.65;65.46;101429.09;4961308;28;48130;-75
2022/11/05 03:34:54;;;;;;;;;12.00;10.25;;;;;10.61;65.82;101413.16;4967543;28;45663;-75
2022/11/05 03:37:29;;;;;;;;;7.25;7.25;;;;;10.77;65.74;101424.38;4973720;28;45415;-75
2022/11/05 03:39:59;;;;;;;;;8.25;8.25;;;;;10.85;65.59;101455.34;4960197;28;45900;-75
2022/11/05 03:42:29;;;;;;;;;10.00;8.00;;;;;10.77;65.62;101437.75;4968683;28;47423;-75
2022/11/05 03:45:00;;;;;;;;;5.25;4.75;;;;;10.77;65.64;101432.41;4972992;28;45441;-75
2022/11/05 03:47:34;;;;;;;;;10.25;9.00;;;;;11.03;66.10;101463.88;4969463;28;45530;-75
2022/11/05 03:50:14;;;;;;;;;9.50;9.50;;;;;10.67;66.02;101405.88;4974577;28;45434;-75
2022/11/05 03:52:47;;;;;;;;;6.50;6.50;;;;;11.11;65.84;101478.81;4971369;28;47086;-74
2022/11/05 03:55:12;;;;;;;;;12.00;9.25;;;;;10.66;65.75;101400.59;4960090;28;45461;-74
2022/11/05 03:58:00;;;;;;;;;9.00;6.25;;;;;10.79;66.14;101425.22;4972000;28;45673;-74
2022/11/05 04:00:25;;;;;;;;;9.00;7.50;;;;;10.72;66.11;101424.50;4959991;28;45303;-75
2022/11/05 04:02:51;;;;;;;;;8.00;6.25;;;;;10.86;65.86;101449.09;4971028;28;47867;-75
2022/11/05 04:05:18;;;;;;;;;6.25;5.75;;;;;10.71;65.63;101420.94;4959655;28;45315;-75
2022/11/05 04:13:26;;;;;;;;;11.50;7.00;;;;;10.70;66.23;101418.31;4978418;28;45898;-74
2022/11/05 04:18:53;;;;;;;;;7.75;4.00;;;;;10.82;65.72;101441.19;4959434;28;45413;-75
2022/11/05 04:24:13;;;;;;;;;7.75;4.50;;;;;10.87;65.33;101472.22;4977262;28;45381;-75
2022/11/05 04:26:47;;;;;;;;;6.00;5.25;;;;;10.57;65.87;101417.69;4966099;28;45423;-74
2022/11/05 04:32:04;;;;;;;;;10.00;7.50;;;;;10.97;65.62;101491.59;4963354;28;45340;-75
2022/11/05 04:34:42;;;;;;;;;3.50;3.00;;;;;10.92;65.69;101486.34;4958012;28;47360;-74
2022/11/05 04:37:14;;;;;;;;;6.75;6.75;;;;;10.72;65.94;101456.53;4971125;28;45473;-74
2022/11/05 04:39:42;;;;;;;;;6.75;5.50;;;;;11.00;66.20;101506.69;4958840;28;45451;-74
2022/11/05 04:42:08;;;;;;;;;5.00;5.00;;;;;10.70;65.75;101455.69;4987004;28;45506;-74
2022/11/05 04:44:48;;;;;;;;;;;;;;;;;;;;;
2022/11/05 04:47:24;;;;;;;;;5.50;5.50;;;;;10.99;65.90;101519.16;4966915;28;71323;-75
2022/11/05 04:49:51;;;;;;;;;10.25;9.50;;;;;10.84;65.94;101485.66;4971060;28;46901;-75
2022/11/05 04:52:19;;;;;;;;;8.00;6.00;;;;;10.45;65.99;101423.31;4965608;28;45593;-75
2022/11/05 04:54:47;;;;;;;;;8.75;6.00;;;;;10.57;66.05;101447.06;4967468;28;47674;-75
2022/11/05 04:57:17;;;;;;;;;6.00;6.00;;;;;10.80;66.19;101486.63;4969877;28;45427;-75
2022/11/05 04:59:47;;;;;;;;;5.75;5.75;;;;;10.94;66.30;101518.38;4961351;28;45606;-75
2022/11/05 05:02:15;;;;;;;;;6.00;5.25;;;;;10.45;66.04;101431.31;4979476;28;45588;-74
2022/11/05 05:04:48;;;;;;;;;10.50;6.25;;;;;10.80;66.13;101491.09;4961315;28;47984;-75
2022/11/05 05:07:16;;;;;;;;;7.50;5.50;;;;;10.56;66.16;101454.19;4971699;28;45523;-75
2022/11/05 05:09:45;;;;;;;;;5.25;5.00;;;;;10.49;66.09;101439.22;4974691;28;45421;-74
2022/11/05 05:12:15;;;;;;;;;6.25;5.50;;;;;10.70;66.03;101471.72;4977593;28;45728;-75
2022/11/05 05:14:40;;;;;;;;;10.25;5.00;;;;;10.98;66.15;101521.88;4980540;28;46733;-74
2022/11/05 05:17:08;;;;;;;;;8.00;8.00;;;;;10.62;66.04;101471.88;4967809;28;45590;-75
2022/11/05 05:21:37;;;;;;;;;6.50;6.00;;;;;10.99;66.42;101526.28;4973430;28;45403;-74
2022/11/05 05:22:21;;;;;;;;;8.00;8.00;;;;;10.64;65.95;101474.50;4961719;28;45631;-75
2022/11/05 05:24:55;;;;;;;;;5.75;5.75;;;;;10.97;66.33;101530.78;4961615;28;47614;-75
2022/11/05 05:27:43;;;;;;;;;8.75;7.50;;;;;10.84;66.51;101508.81;4972968;28;45921;-74
2022/11/05 05:30:12;;;;;;;;;4.75;4.75;;;;;10.67;66.28;101477.97;4959828;28;45466;-75
2022/11/05 05:32:44;;;;;;;;;5.75;5.75;;;;;10.78;66.06;101484.91;4972175;28;45537;-74
2022/11/05 05:35:12;;;;;;;;;4.75;4.75;;;;;10.56;66.14;101456.00;4963966;28;47324;-75
2022/11/05 05:37:49;;;;;;;;;5.50;4.00;;;;;11.02;65.93;101542.25;4971883;28;45322;-75
2022/11/05 05:40:19;;;;;;;;;8.75;6.00;;;;;10.89;66.05;101507.81;4980230;28;45686;-74
2022/11/05 05:42:57;;;;;;;;;5.25;3.25;;;;;10.79;66.04;101500.00;4968498;28;45512;-74
2022/11/05 05:45:33;;;;;;;;;8.75;8.25;;;;;11.00;65.49;101531.59;4961609;28;47284;-74
2022/11/05 05:48:03;;;;;;;;;9.25;8.00;;;;;10.56;66.04;101461.34;4976297;28;45258;-75
2022/11/05 05:50:34;;;;;;;;;6.50;6.50;;;;;10.60;66.12;101481.69;4971035;28;45740;-75
2022/11/05 05:53:28;;;;;;;;;8.75;8.00;;;;;10.85;66.43;101523.94;4961688;28;45243;-75
2022/11/05 05:55:56;;;;;;;;;6.25;5.25;;;;;10.66;66.08;101496.69;4957589;28;48135;-74
2022/11/05 05:58:34;;;;;;;;;5.25;5.25;;;;;10.70;66.28;101491.28;4979940;28;45598;-74
2022/11/05 06:01:05;;;;;;;;;6.00;6.00;;;;;10.74;66.16;101506.34;4976351;28;45600;-74
2022/11/05 06:06:22;;;;;;;;;7.50;7.50;;;;;10.69;66.03;101502.88;4971894;28;47226;-75
2022/11/05 06:08:52;;;;;;;;;4.50;4.00;;;;;10.65;66.21;101500.31;4968385;28;45524;-74
2022/11/05 06:11:18;;;;;;;;;9.50;6.50;;;;;10.53;66.48;101474.75;4991316;28;45503;-74
2022/11/05 06:13:43;;;;;;;;;6.00;6.00;;;;;10.50;66.12;101478.34;4967837;28;45664;-74
2022/11/05 06:16:13;;;;;;;;;8.50;5.00;;;;;10.55;66.08;101486.25;4972032;28;46960;-74
2022/11/05 06:18:42;;;;;;;;;8.25;6.50;;;;;10.80;66.47;101533.81;4972344;28;45628;-75
2022/11/05 06:21:10;;;;;;;;;7.50;5.25;;;;;10.57;66.40;101498.69;4963625;28;45334;-74
2022/11/05 06:23:39;;;;;;;;;8.00;4.50;;;;;10.72;66.01;101525.97;4969559;28;45814;-74
2022/11/05 06:26:15;;;;;;;;;6.00;5.00;;;;;10.69;66.37;101526.03;4971373;28;47318;-74
2022/11/05 06:28:44;;;;;;;;;4.75;3.00;;;;;10.43;66.27;101478.50;4976013;28;45494;-74
2022/11/05 06:31:12;;;;;;;;;7.00;5.25;;;;;10.57;66.47;101500.44;4971521;28;45451;-74
2022/11/05 06:33:46;;;;;;;;;8.25;5.75;;;;;10.44;66.41;101480.25;4974325;28;45263;-74
2022/11/05 06:36:18;;;;;;;;;9.50;8.00;;;;;10.69;66.68;101526.03;4961199;28;48489;-74
2022/11/05 06:38:52;;;;;;;;;7.00;5.75;;;;;10.52;66.42;101507.66;4974143;28;45837;-74
2022/11/05 06:41:18;;;;;;;;;8.25;5.00;;;;;10.53;66.30;101509.44;4965851;28;45533;-74
2022/11/05 06:43:43;;;;;;;;;7.25;4.50;;;;;10.44;66.42;101486.50;4973801;28;45372;-74
2022/11/05 06:46:10;;;;;;;;;8.00;6.00;;;;;10.73;66.36;101535.75;4961706;28;45601;-74
2022/11/05 06:48:35;;;;;;;;;6.50;3.25;;;;;10.50;66.20;101488.16;4971170;28;45302;-74
2022/11/05 06:51:02;;;;;;;;;5.00;5.00;;;;;10.90;66.25;101562.09;4965329;28;45390;-75
2022/11/05 06:53:31;;;;;;;;;5.00;5.00;;;;;10.50;66.17;101499.69;4969531;28;46952;-74
2022/11/05 06:56:25;;;;;;;;;8.25;6.50;;;;;10.82;66.37;101556.03;4983983;28;47919;-74
2022/11/05 06:58:53;;;;;;;;;8.50;5.00;;;;;10.48;66.78;101501.53;4980179;28;45731;-75
2022/11/05 07:01:22;;;;;;;;;6.50;6.50;;;;;10.64;66.43;101535.91;4966916;28;45642;-74
2022/11/05 07:03:55;;;;;;;;;6.75;6.25;;;;;10.54;66.43;101529.88;4973623;28;45664;-74
2022/11/05 07:06:23;;;;;;;;;5.50;5.50;;;;;10.82;67.12;101564.03;4967088;28;45635;-74
2022/11/05 07:08:58;;;;;;;;;6.25;6.25;;;;;10.66;66.33;101542.09;4968649;28;45499;-74
2022/11/05 07:11:23;;;;;;;;;6.50;6.50;;;;;10.51;66.84;101527.28;4967772;28;45410;-74
2022/11/05 07:13:54;;;;;;;;;8.25;8.00;;;;;10.68;66.91;101567.00;4978668;28;46866;-74
2022/11/05 07:16:20;;;;;;;;;7.00;5.50;;;;;10.64;67.04;101558.19;4966382;28;48205;-74
2022/11/05 07:18:45;;;;;;;;;5.75;5.00;;;;;10.68;67.06;101567.88;4977350;28;45530;-74
2022/11/05 07:21:11;;;;;;;;;6.50;6.50;;;;;10.40;66.67;101511.47;4962272;28;45444;-74
2022/11/05 07:23:50;;;;;;;;;5.00;5.00;;;;;10.72;67.11;101572.22;4973418;28;45374;-74
2022/11/05 07:26:15;;;;;;;;;6.75;5.00;;;;;10.55;67.05;101545.00;4957829;28;46812;-74
2022/11/05 07:28:49;;;;;;;;;8.75;5.75;;;;;10.67;67.09;101558.09;4958576;28;45500;-74
2022/11/05 07:31:18;;;;;;;;;8.25;7.75;;;;;10.72;67.14;101558.00;4960475;28;45680;-74
2022/11/05 07:33:50;;;;;;;;;6.50;5.50;;;;;10.35;67.17;101497.34;4965259;28;45643;-74
2022/11/05 07:36:16;;;;;;;;;5.75;5.00;;;;;10.59;67.28;101537.78;4971310;28;47284;-74
2022/11/05 07:38:44;;;;;;;;;9.00;5.75;;;;;10.47;67.14;101528.25;4969895;28;45357;-74
2022/11/05 07:41:09;;;;;;;;;10.00;7.00;;;;;10.68;67.32;101567.00;4966390;28;45413;-74
2022/11/05 07:43:34;;;;;;;;;10.50;6.00;;;;;10.62;67.03;101556.44;4965910;28;45782;-74
2022/11/05 07:46:02;;;;;;;;;4.75;4.75;;;;;10.54;67.30;101537.88;4965780;28;47994;-74
2022/11/05 07:48:31;;;;;;;;;9.00;6.00;;;;;10.84;67.05;101594.25;4968980;28;45848;-74
2022/11/05 07:54:28;;;;;;;;;9.50;6.00;;;;;10.63;66.90;101539.50;4938123;28;45815;-77
2022/11/05 07:57:47;;;;;;;;;6.00;5.00;;;;;10.74;66.64;101556.16;4954193;28;45656;-75
2022/11/05 08:00:21;;;;;;;;;12.25;6.50;;;;;10.63;67.55;101537.72;4952192;28;45882;-76
2022/11/05 08:03:12;;;;;;;;;7.75;7.25;;;;;10.61;66.88;101527.97;4963402;28;45632;-77
2022/11/05 08:05:56;;;;;;;;;;;;;;;;;;;;;
2022/11/05 08:09:00;;;;;;;;;6.50;6.00;;;;;10.84;67.12;101559.53;4969194;28;75300;-75
2022/11/05 08:11:40;;;;;;;;;6.00;5.00;;;;;11.14;66.96;101606.13;4958671;28;45781;-78
2022/11/05 08:14:20;;;;;;;;;6.00;5.75;;;;;10.77;67.03;101528.53;4968223;28;45543;-78
2022/11/05 08:16:50;;;;;;;;;3.75;3.75;;;;;10.89;66.83;101554.97;4968759;28;45621;-80
2022/11/05 08:19:36;;;;;;;;;;;;;;;;;;;;;
2022/11/05 08:22:14;;;;;;;;;;;;;;;;;;;;;
2022/11/05 08:25:00;;;;;;;;;;;;;;;;;;;;;
2022/11/05 08:28:16;;;;;;;;;9.75;5.75;;;;;10.93;66.96;101559.38;4963694;28;71964;-79
2022/11/05 08:31:17;;;;;;;;;4.00;4.00;;;;;11.23;67.47;101615.75;4954086;28;46500;-80
2022/11/05 08:37:22;;;;;;;;;7.25;5.75;;;;;10.92;66.98;101550.44;4963124;28;45252;-74
2022/11/05 08:40:30;;;;;;;;;7.25;6.00;;;;;10.89;66.92;101552.31;4976570;28;45356;-76
2022/11/05 08:43:02;;;;;;;;;7.75;7.75;;;;;10.88;67.11;101535.41;4972586;28;46902;-76
2022/11/05 08:48:09;;;;;;;;;11.00;8.50;;;;;11.26;67.19;101596.94;5638028;23;68109;-73
2022/11/05 08:50:38;;;;;;;;;6.00;6.00;;;;;11.20;67.51;101589.09;4993857;28;45596;-74
2022/11/05 08:53:48;;;;;;;;;9.75;6.50;;;;;11.31;67.28;101616.47;4981059;28;46366;-75
2022/11/05 08:56:15;;;;;;;;;8.50;8.50;;;;;11.06;67.28;101573.31;4985446;28;45499;-72
2022/11/05 09:14:36;;;;;;;;;10.75;10.00;;;;;11.58;67.88;101619.47;5516919;23;46650;-78
2022/11/05 09:21:19;;;;;;;;;8.25;7.00;;;;;11.40;67.46;101572.63;4948386;28;45469;-77
2022/11/05 09:23:44;;;;;;;;;5.00;4.25;;;;;11.33;67.75;101555.84;4945819;28;45475;-69
2022/11/05 09:26:11;;;;;;;;;7.25;7.25;;;;;11.49;67.58;101570.63;4955862;28;46352;-70
2022/11/05 09:28:37;;;;;;;;;7.75;6.25;;;;;11.53;67.50;101575.88;4993534;28;46573;-70
2022/11/05 09:31:07;;;;;;;;;6.00;6.00;;;;;11.72;67.98;101595.94;5020758;28;45520;-71
2022/11/05 09:58:26;;;;;;;;;3.50;3.00;;;;;12.14;67.46;101582.44;4767858;29;45419;-69
2022/11/05 10:04:22;;;;;;;;;3.00;3.00;;;;;12.23;67.18;101584.03;4772072;29;46253;-70
2022/11/05 10:07:44;;;;;;;;;;;;;;;;;;;;;
2022/11/05 10:13:45;;;;;;;;;4.00;3.00;;;;;12.38;67.00;101569.38;4892451;28;45723;-70
2022/11/05 10:17:07;;;;;;;;;;;;;;;;;;;;;
2022/11/05 10:23:15;;;;;;;;;1.50;1.50;;;;;12.71;66.74;101598.81;4872427;28;45634;-72
2022/11/05 11:08:10;;;;;;;;;2.00;2.00;;;;;13.25;65.51;101614.25;5121574;22;67867;-68
2022/11/05 11:11:24;;;;;;;;;4.25;3.75;;;;;12.97;65.45;101564.13;5047989;28;45779;-71
2022/11/05 11:13:55;;;;;;;;;5.00;3.75;;;;;13.31;65.55;101607.81;5024162;28;47206;-72
2022/11/05 11:17:23;;;;;;;;;;;;;;;;;;;;;
2022/11/05 11:20:55;;;;;;;;;;;;;;;;;;;;;
2022/11/05 11:27:17;;;;;;;;;4.50;3.50;;;;;13.08;65.48;101531.66;5016886;28;47133;-78
2022/11/05 11:29:56;;;;;;;;;5.00;4.00;;;;;13.26;65.41;101561.50;5032952;28;45316;-69
2022/11/05 11:33:10;;;;;;;;;;;;;;;;;;;;;
2022/11/05 11:35:56;;;;;;;;;3.00;2.50;;;;;13.06;65.29;101516.53;5030013;28;72901;-71
2022/11/05 11:38:23;;;;;;;;;3.00;3.00;;;;;13.37;65.26;101559.41;5030487;28;45922;-72
2022/11/05 11:41:01;;;;;;;;;5.00;3.75;;;;;13.26;65.10;101543.59;5031973;28;45306;-68
2022/11/05 11:43:33;;;;;;;;;3.25;3.00;;;;;13.33;65.05;101549.66;5033110;28;45584;-68
2022/11/05 11:46:11;;;;;;;;;5.75;4.75;;;;;13.39;65.33;101548.63;5032604;28;45474;-68
2022/11/05 11:48:42;;;;;;;;;2.00;2.00;;;;;13.36;65.08;101546.91;5032216;28;47451;-68
2022/11/05 11:51:43;;;;;;;;;5.00;3.00;;;;;13.45;64.99;101545.75;5033005;28;45593;-70
2022/11/05 11:54:52;;;;;;;;;;;;;;;;;;;;;
2022/11/05 11:57:29;;;;;;;;;2.00;2.00;;;;;13.43;64.62;101552.94;5021144;28;72059;-69
2022/11/05 11:59:58;;;;;;;;;2.25;1.75;;;;;13.41;64.73;101541.41;5021054;28;46445;-72
2022/11/05 12:02:41;;;;;;;;;;;;;;;;;;;;;
2022/11/05 12:05:22;;;;;;;;;2.75;2.00;;;;;13.63;64.67;101577.34;5017819;28;69509;-71
2022/11/05 12:08:12;;;;;;;;;4.00;2.75;;;;;13.64;64.46;101576.41;5019887;28;45460;-72
2022/11/05 12:10:46;;;;;;;;;3.75;2.50;;;;;13.67;64.84;101578.13;5016265;28;46514;-72
2022/11/05 12:13:28;;;;;;;;;;;;;;;;;;;;;
2022/11/05 12:16:34;;;;;;;;;2.75;1.00;;;;;13.44;64.62;101531.44;5019383;28;68125;-72
2022/11/05 12:19:18;;;;;;;;;3.00;1.75;;;;;13.47;64.49;101527.81;5020664;28;45482;-72
2022/11/05 12:22:42;;;;;;;;;5.50;3.00;;;;;13.38;64.44;101499.47;5017252;28;45596;-77
2022/11/05 12:25:31;;;;;;;;;2.00;2.00;;;;;13.76;64.83;101561.72;4997691;28;45693;-73
2022/11/05 12:32:14;;;;;;;;;3.00;1.00;;;;;13.44;64.07;101493.91;4948561;28;45497;-75
2022/11/05 12:35:14;;;;;;;;;;;;;;;;;;;;;
2022/11/05 12:42:20;;;;;;;;;;;;;;;;;;;;;
2022/11/05 12:45:06;;;;;;;;;1.75;1.75;;;;;13.87;63.70;101540.78;4989561;28;45893;-75
2022/11/05 12:47:53;;;;;;;;;2.25;2.00;;;;;13.90;63.99;101526.41;5016472;28;45841;-76
2022/11/05 12:51:04;;;;;;;;;;;;;;;;;;;;;
2022/11/05 12:53:48;;;;;;;;;1.00;1.00;;;;;13.59;63.58;101468.38;5006691;28;67856;-74
